createdAt,value
2018-07-28T00:00:45.554Z,8.00
2018-07-28T00:03:15.051Z,8.90
2018-07-28T00:05:44.375Z,9.00
2018-07-28T00:08:14.125Z,7.80
2018-07-28T00:10:43.707Z,8.50
2018-07-28T00:13:12.983Z,8.17
2018-07-28T00:15:42.460Z,9.40
2018-07-28T00:18:11.893Z,8.13
2018-07-28T00:20:41.380Z,8.63
2018-07-28T00:23:10.695Z,9.50
2018-07-28T00:26:46.547Z,9.27
2018-07-28T00:29:16.276Z,8.53
2018-07-28T00:31:45.614Z,8.93
2018-07-28T00:34:15.092Z,9.27
2018-07-28T00:36:44.578Z,8.67
2018-07-28T00:39:15.074Z,10.00
2018-07-28T00:41:44.336Z,9.63
2018-07-28T00:44:13.622Z,8.70
2018-07-28T00:46:42.885Z,8.90
2018-07-28T00:49:12.160Z,9.40
2018-07-28T00:51:41.879Z,9.30
2018-07-28T00:54:11.173Z,9.97
2018-07-28T00:56:40.508Z,10.10
2018-07-28T00:59:09.806Z,8.63
2018-07-28T01:01:39.083Z,8.53
2018-07-28T01:04:08.347Z,9.43
2018-07-28T01:06:37.670Z,11.23
2018-07-28T01:09:09.832Z,9.93
2018-07-28T01:11:39.544Z,9.40
2018-07-28T01:14:08.878Z,9.00
2018-07-28T01:16:38.144Z,9.43
2018-07-28T01:19:07.477Z,8.47
2018-07-28T01:21:36.766Z,8.43
2018-07-28T01:24:06.064Z,8.40
2018-07-28T01:26:35.348Z,9.07
2018-07-28T01:29:09.830Z,10.10
2018-07-28T01:31:39.242Z,9.70
2018-07-28T01:34:08.506Z,9.03
2018-07-28T01:36:37.810Z,9.17
2018-07-28T01:39:12.229Z,9.57
2018-07-28T01:41:42.213Z,9.10
2018-07-28T01:44:11.706Z,9.20
2018-07-28T01:46:41.761Z,9.80
2018-07-28T01:49:11.062Z,9.77
2018-07-28T01:51:40.118Z,9.50
2018-07-28T01:54:09.423Z,10.53
2018-07-28T01:56:38.688Z,10.00
2018-07-28T01:59:08.053Z,9.40
2018-07-28T02:01:37.398Z,9.90
2018-07-28T02:04:06.725Z,9.93
2018-07-28T02:06:36.009Z,10.17
2018-07-28T02:09:09.489Z,10.13
2018-07-28T02:11:38.781Z,9.70
2018-07-28T02:14:08.769Z,9.90
2018-07-28T02:16:38.077Z,10.70
2018-07-28T02:19:07.143Z,9.30
2018-07-28T02:21:36.450Z,11.27
2018-07-28T02:24:05.809Z,10.27
2018-07-28T02:26:36.311Z,10.93
2018-07-28T02:29:05.599Z,9.80
2018-07-28T02:31:35.349Z,10.57
2018-07-28T02:34:04.735Z,10.13
2018-07-28T02:36:34.050Z,10.03
2018-07-28T02:39:03.376Z,10.83
2018-07-28T02:41:32.631Z,10.43
2018-07-28T02:44:02.035Z,9.90
2018-07-28T02:46:31.373Z,11.27
2018-07-28T02:49:00.647Z,10.67
2018-07-28T02:51:29.938Z,10.53
2018-07-28T02:53:59.747Z,10.07
2018-07-28T02:56:29.034Z,10.73
2018-07-28T02:58:58.332Z,9.90
2018-07-28T03:01:27.687Z,10.80
2018-07-28T03:03:57.021Z,11.43
2018-07-28T03:06:26.327Z,10.67
2018-07-28T03:08:55.689Z,9.47
2018-07-28T03:11:25.008Z,10.07
2018-07-28T03:13:54.324Z,11.67
2018-07-28T03:16:23.931Z,10.60
2018-07-28T03:18:53.198Z,10.97
2018-07-28T03:21:22.532Z,11.63
2018-07-28T03:23:51.930Z,11.20
2018-07-28T03:26:21.256Z,11.10
2018-07-28T03:28:50.558Z,11.50
2018-07-28T03:31:19.855Z,12.50
2018-07-28T03:33:49.170Z,11.70
2018-07-28T03:36:18.706Z,12.20
2018-07-28T03:38:48.522Z,11.60
2018-07-28T03:41:17.806Z,11.90
2018-07-28T03:43:47.091Z,12.90
2018-07-28T03:46:16.370Z,12.10
2018-07-28T03:48:45.650Z,11.10
2018-07-28T03:51:14.972Z,13.03
2018-07-28T03:53:44.237Z,12.13
2018-07-28T03:56:13.524Z,12.80
2018-07-28T03:58:42.815Z,12.77
2018-07-28T04:01:12.513Z,11.63
2018-07-28T04:03:41.812Z,12.80
2018-07-28T04:06:11.127Z,13.33
2018-07-28T04:08:40.459Z,13.10
2018-07-28T04:11:09.727Z,13.03
2018-07-28T04:13:39.121Z,11.87
2018-07-28T04:16:08.160Z,13.40
2018-07-28T04:18:37.458Z,12.23
2018-07-28T04:21:06.807Z,12.53
2018-07-28T04:23:36.438Z,13.50
2018-07-28T04:26:05.815Z,11.90
2018-07-28T04:28:35.176Z,11.87
2018-07-28T04:31:04.533Z,12.43
2018-07-28T04:33:33.807Z,12.70
2018-07-28T04:36:03.085Z,12.90
2018-07-28T04:38:32.383Z,13.00
2018-07-28T04:41:01.673Z,13.07
2018-07-28T04:43:30.983Z,13.17
2018-07-28T04:46:00.537Z,13.90
2018-07-28T04:48:29.827Z,12.60
2018-07-28T04:50:59.087Z,13.23
2018-07-28T04:53:28.367Z,12.63
2018-07-28T04:55:57.787Z,12.20
2018-07-28T04:58:27.078Z,13.63
2018-07-28T05:00:56.366Z,12.17
2018-07-28T05:03:25.619Z,12.33
2018-07-28T05:05:54.951Z,12.80
2018-07-28T05:08:24.595Z,12.90
2018-07-28T05:10:53.847Z,13.37
2018-07-28T05:13:23.144Z,13.40
2018-07-28T05:15:52.527Z,13.20
2018-07-28T05:18:21.830Z,13.67
2018-07-28T05:20:51.116Z,13.23
2018-07-28T05:23:20.417Z,13.03
2018-07-28T05:25:49.731Z,12.90
2018-07-28T05:28:19.033Z,12.90
2018-07-28T05:30:48.431Z,13.50
2018-07-28T05:33:17.699Z,13.23
2018-07-28T05:35:46.983Z,13.83
2018-07-28T05:38:16.307Z,13.90
2018-07-28T05:40:45.630Z,13.63
2018-07-28T05:43:14.866Z,13.67
2018-07-28T05:45:44.203Z,13.20
2018-07-28T05:48:13.879Z,13.57
2018-07-28T05:50:43.293Z,14.80
2018-07-28T05:53:13.023Z,13.87
2018-07-28T05:55:42.327Z,14.00
2018-07-28T05:58:11.602Z,13.83
2018-07-28T06:00:40.675Z,13.83
2018-07-28T06:03:09.965Z,13.13
2018-07-28T06:05:39.276Z,12.67
2018-07-28T06:08:08.562Z,12.80
2018-07-28T06:10:37.942Z,14.90
2018-07-28T06:13:07.267Z,12.43
2018-07-28T06:15:37.013Z,13.93
2018-07-28T06:18:06.382Z,12.30
2018-07-28T06:20:35.692Z,12.63
2018-07-28T06:23:05.236Z,12.80
2018-07-28T06:25:34.505Z,11.70
2018-07-28T06:28:03.892Z,12.70
2018-07-28T06:30:33.268Z,11.33
2018-07-28T06:33:02.566Z,12.27
2018-07-28T06:35:31.903Z,12.47
2018-07-28T06:38:01.341Z,12.80
2018-07-28T06:40:30.595Z,12.83
2018-07-28T06:42:59.893Z,12.43
2018-07-28T06:45:29.301Z,11.30
2018-07-28T06:47:58.575Z,12.20
2018-07-28T06:50:27.911Z,12.07
2018-07-28T06:52:57.280Z,11.83
2018-07-28T06:55:26.698Z,10.40
2018-07-28T06:57:56.041Z,12.13
2018-07-28T07:00:25.661Z,10.57
2018-07-28T07:02:55.109Z,10.10
2018-07-28T07:05:24.394Z,9.77
2018-07-28T07:07:53.707Z,9.80
2018-07-28T07:10:23.054Z,11.17
2018-07-28T07:12:52.358Z,10.20
2018-07-28T07:15:21.733Z,11.37
2018-07-28T07:17:51.026Z,10.63
2018-07-28T07:20:20.354Z,12.60
2018-07-28T07:22:49.775Z,12.70
2018-07-28T07:25:19.093Z,13.03
2018-07-28T07:27:48.439Z,14.33
2018-07-28T07:30:17.831Z,14.13
2018-07-28T07:32:47.123Z,14.20
2018-07-28T07:35:16.818Z,13.33
2018-07-28T07:37:47.065Z,13.17
2018-07-28T07:40:16.487Z,12.87
2018-07-28T07:42:45.804Z,12.20
2018-07-28T07:45:15.347Z,12.47
2018-07-28T07:47:44.664Z,11.70
2018-07-28T07:50:13.998Z,12.00
2018-07-28T07:52:43.393Z,11.87
2018-07-28T07:55:12.691Z,11.90
2018-07-28T07:57:41.972Z,12.90
2018-07-28T08:00:11.477Z,11.87
2018-07-28T08:02:40.812Z,10.97
2018-07-28T08:05:10.174Z,12.10
2018-07-28T08:07:39.895Z,11.30
2018-07-28T08:10:09.211Z,10.73
2018-07-28T08:12:38.558Z,11.40
2018-07-28T08:15:07.876Z,11.23
2018-07-28T08:17:37.151Z,10.70
2018-07-28T08:20:06.470Z,10.50
2018-07-28T08:22:35.814Z,10.60
2018-07-28T08:25:05.909Z,9.83
2018-07-28T08:27:35.572Z,9.43
2018-07-28T08:30:06.444Z,8.57
2018-07-28T08:32:35.813Z,7.43
2018-07-28T08:35:06.775Z,8.20
2018-07-28T08:37:36.078Z,7.90
2018-07-28T08:40:06.673Z,7.90
2018-07-28T08:42:36.059Z,7.30
2018-07-28T08:45:06.193Z,7.73
2018-07-28T08:47:35.590Z,7.17
2018-07-28T08:50:05.343Z,6.70
2018-07-28T08:52:34.611Z,6.63
2018-07-28T08:55:03.928Z,6.70
2018-07-28T08:57:33.274Z,7.00
2018-07-28T09:00:02.619Z,6.90
2018-07-28T09:02:31.914Z,6.10
2018-07-28T09:05:01.250Z,6.77
2018-07-28T09:07:30.550Z,6.50
2018-07-28T09:10:00.830Z,6.87
2018-07-28T09:12:30.628Z,7.00
2018-07-28T09:14:59.887Z,6.60
2018-07-28T09:17:29.145Z,6.10
2018-07-28T09:19:58.512Z,6.50
2018-07-28T09:22:27.908Z,5.50
2018-07-28T09:24:57.282Z,6.00
2018-07-28T09:27:26.792Z,6.03
2018-07-28T09:29:56.100Z,5.67
2018-07-28T09:32:25.391Z,5.20
2018-07-28T09:34:55.036Z,5.10
2018-07-28T09:37:24.614Z,5.00
2018-07-28T09:39:53.944Z,4.90
2018-07-28T09:42:23.282Z,5.53
2018-07-28T09:44:52.620Z,5.87
2018-07-28T09:47:21.920Z,5.23
2018-07-28T09:49:51.271Z,5.60
2018-07-28T09:52:20.592Z,5.70
2018-07-28T09:54:50.115Z,5.70
2018-07-28T09:57:19.978Z,5.47
2018-07-28T09:59:49.429Z,5.00
2018-07-28T10:02:18.887Z,5.20
2018-07-28T10:04:48.366Z,5.63
2018-07-28T10:07:17.711Z,5.07
2018-07-28T10:09:47.203Z,4.87
2018-07-28T10:12:16.518Z,5.00
2018-07-28T10:14:45.835Z,4.97
2018-07-28T10:17:15.223Z,5.43
2018-07-28T10:19:44.766Z,4.93
2018-07-28T10:22:14.295Z,4.80
2018-07-28T10:24:43.684Z,4.73
2018-07-28T10:27:13.022Z,4.60
2018-07-28T10:29:42.307Z,4.60
2018-07-28T10:32:11.619Z,5.00
2018-07-28T10:34:40.937Z,5.37
2018-07-28T10:37:10.009Z,4.90
2018-07-28T10:39:39.408Z,4.53
2018-07-28T10:42:08.834Z,4.60
2018-07-28T10:44:37.916Z,4.70
2018-07-28T10:47:07.287Z,5.27
2018-07-28T10:49:36.621Z,4.80
2018-07-28T10:52:05.982Z,5.10
2018-07-28T10:54:35.325Z,5.07
2018-07-28T10:57:04.664Z,5.03
2018-07-28T10:59:33.998Z,4.67
2018-07-28T11:02:03.343Z,4.80
2018-07-28T11:04:33.138Z,4.67
2018-07-28T11:07:02.444Z,4.80
2018-07-28T11:09:31.795Z,5.17
2018-07-28T11:12:01.171Z,5.33
2018-07-28T11:14:30.518Z,4.40
2018-07-28T11:16:59.780Z,4.83
2018-07-28T11:19:29.110Z,4.90
2018-07-28T11:21:58.442Z,4.33
2018-07-28T11:24:27.774Z,4.50
2018-07-28T11:26:57.670Z,5.10
2018-07-28T11:29:27.041Z,5.03
2018-07-28T11:32:13.382Z,4.80
2018-07-28T11:34:59.646Z,4.40
2018-07-28T11:37:45.935Z,5.47
2018-07-28T11:42:38.706Z,5.83
2018-07-28T11:45:16.414Z,5.40
2018-07-28T11:47:45.703Z,5.73
2018-07-28T11:50:14.986Z,5.83
2018-07-28T11:52:44.312Z,4.80
2018-07-28T11:55:13.620Z,5.23
2018-07-28T11:57:42.916Z,4.97
2018-07-28T12:00:12.267Z,4.60
2018-07-28T12:02:41.527Z,5.20
2018-07-28T12:05:10.803Z,5.23
2018-07-28T12:07:40.295Z,6.07
2018-07-28T12:10:10.110Z,4.90
2018-07-28T12:12:39.477Z,5.13
2018-07-28T12:15:09.064Z,5.33
2018-07-28T12:17:38.455Z,5.70
2018-07-28T12:20:07.849Z,5.70
2018-07-28T12:22:37.158Z,5.73
2018-07-28T12:25:06.453Z,4.77
2018-07-28T12:27:35.812Z,5.33
2018-07-28T12:30:06.588Z,6.50
2018-07-28T12:32:35.906Z,5.13
2018-07-28T12:35:05.940Z,5.40
2018-07-28T12:37:35.292Z,5.60
2018-07-28T12:40:04.640Z,5.87
2018-07-28T12:42:34.017Z,6.13
2018-07-28T12:45:03.449Z,6.40
2018-07-28T12:47:32.790Z,6.27
2018-07-28T12:50:02.162Z,5.53
2018-07-28T12:52:31.430Z,6.07
2018-07-28T12:55:01.409Z,6.20
2018-07-28T12:57:31.321Z,6.70
2018-07-28T13:00:00.686Z,5.57
2018-07-28T13:02:30.030Z,6.30
2018-07-28T13:04:59.326Z,6.40
2018-07-28T13:07:28.779Z,6.47
2018-07-28T13:09:58.046Z,6.53
2018-07-28T13:12:27.391Z,6.07
2018-07-28T13:14:57.018Z,6.23
2018-07-28T13:17:26.338Z,5.90
2018-07-28T13:19:55.739Z,5.90
2018-07-28T13:22:25.067Z,6.00
2018-07-28T13:24:54.502Z,6.43
2018-07-28T13:27:23.762Z,6.70
2018-07-28T13:29:53.172Z,6.10
2018-07-28T13:32:22.406Z,7.70
2018-07-28T13:34:51.795Z,7.43
2018-07-28T13:37:21.206Z,6.90
2018-07-28T13:39:50.509Z,7.90
2018-07-28T13:42:19.843Z,7.17
2018-07-28T13:44:49.210Z,7.73
2018-07-28T13:47:18.529Z,7.53
2018-07-28T13:49:47.886Z,7.87
2018-07-28T13:52:17.295Z,8.97
2018-07-28T13:54:46.656Z,9.57
2018-07-28T13:57:15.986Z,8.23
2018-07-28T13:59:45.868Z,9.77
2018-07-28T14:02:16.388Z,8.63
2018-07-28T14:04:45.760Z,10.30
2018-07-28T14:07:15.090Z,9.60
2018-07-28T14:09:44.519Z,10.63
2018-07-28T14:12:14.044Z,10.77
2018-07-28T14:14:43.698Z,10.93
2018-07-28T14:17:13.065Z,12.23
2018-07-28T14:19:42.360Z,12.10
2018-07-28T14:22:12.346Z,11.90
2018-07-28T14:24:41.697Z,12.67
2018-07-28T14:27:11.040Z,13.00
2018-07-28T14:29:40.370Z,13.03
2018-07-28T14:32:09.669Z,14.30
2018-07-28T14:34:39.168Z,13.60
2018-07-28T14:37:08.495Z,14.07
2018-07-28T14:39:37.872Z,15.80
2018-07-28T14:42:07.171Z,14.67
2018-07-28T14:44:36.977Z,14.80
2018-07-28T14:47:07.225Z,16.00
2018-07-28T14:49:36.491Z,15.27
2018-07-28T14:52:05.809Z,15.53
2018-07-28T14:54:34.941Z,16.00
2018-07-28T14:57:04.320Z,14.00
2018-07-28T14:59:33.664Z,15.57
2018-07-28T15:02:02.987Z,15.47
2018-07-28T15:04:32.495Z,16.67
2018-07-28T15:07:02.393Z,15.63
2018-07-28T15:09:31.732Z,18.00
2018-07-28T15:12:01.106Z,18.80
2018-07-28T15:14:30.598Z,18.90
2018-07-28T15:16:59.904Z,17.60
2018-07-28T15:19:29.208Z,17.17
2018-07-28T15:21:58.587Z,17.00
2018-07-28T15:24:28.054Z,17.47
2018-07-28T15:26:57.402Z,18.83
2018-07-28T15:29:27.243Z,17.00
2018-07-28T15:31:56.687Z,17.67
2018-07-28T15:34:26.035Z,17.97
2018-07-28T15:36:55.409Z,19.33
2018-07-28T15:39:24.706Z,18.80
2018-07-28T15:41:54.038Z,21.27
2018-07-28T15:44:23.321Z,21.33
2018-07-28T15:46:52.630Z,21.23
2018-07-28T15:49:21.973Z,22.70
2018-07-28T15:51:51.973Z,19.47
2018-07-28T15:54:21.314Z,19.83
2018-07-28T15:56:50.694Z,19.80
2018-07-28T15:59:19.856Z,19.67
2018-07-28T16:01:49.237Z,18.50
2018-07-28T16:04:18.470Z,17.77
2018-07-28T16:06:47.806Z,17.30
2018-07-28T16:09:17.102Z,17.87
2018-07-28T16:11:46.449Z,18.30
2018-07-28T16:14:16.951Z,18.20
2018-07-28T16:16:46.272Z,14.73
2018-07-28T16:19:15.654Z,16.70
2018-07-28T16:21:45.035Z,14.80
2018-07-28T16:24:14.392Z,16.27
2018-07-28T16:26:43.711Z,17.43
2018-07-28T16:29:13.059Z,16.20
2018-07-28T16:31:42.331Z,16.43
2018-07-28T16:34:11.625Z,17.03
2018-07-28T16:36:41.163Z,17.27
2018-07-28T16:39:11.458Z,15.70
2018-07-28T16:41:40.758Z,17.13
2018-07-28T16:44:10.091Z,15.80
2018-07-28T16:46:39.517Z,16.83
2018-07-28T16:49:09.042Z,17.33
2018-07-28T16:51:38.428Z,16.30
2018-07-28T16:54:08.071Z,16.30
2018-07-28T16:56:37.446Z,16.77
2018-07-28T16:59:06.936Z,16.40
2018-07-28T17:01:36.647Z,16.80
2018-07-28T17:04:06.034Z,16.20
2018-07-28T17:06:35.603Z,16.37
2018-07-28T17:09:07.836Z,16.73
2018-07-28T17:11:37.210Z,17.87
2018-07-28T17:14:06.639Z,16.70
2018-07-28T17:16:36.031Z,17.80
2018-07-28T17:19:06.621Z,16.50
2018-07-28T17:21:35.987Z,17.97
2018-07-28T17:24:05.412Z,17.63
2018-07-28T17:26:34.937Z,17.90
2018-07-28T17:29:05.756Z,18.10
2018-07-28T17:31:35.128Z,18.90
2018-07-28T17:34:04.523Z,18.50
2018-07-28T17:36:33.842Z,18.30
2018-07-28T17:39:03.371Z,18.83
2018-07-28T17:41:32.773Z,19.00
2018-07-28T17:44:02.248Z,18.73
2018-07-28T17:46:31.534Z,18.80
2018-07-28T17:49:00.900Z,20.90
2018-07-28T17:51:30.698Z,19.50
2018-07-28T17:54:00.043Z,19.60
2018-07-28T17:56:29.331Z,19.30
2018-07-28T17:58:58.638Z,21.50
2018-07-28T18:01:27.921Z,20.93
2018-07-28T18:03:57.421Z,19.70
2018-07-28T18:06:26.727Z,17.70
2018-07-28T18:08:56.053Z,20.37
2018-07-28T18:11:25.483Z,17.23
2018-07-28T18:13:54.874Z,16.43
2018-07-28T18:16:24.209Z,17.20
2018-07-28T18:18:53.686Z,15.47
2018-07-28T18:21:23.471Z,16.10
2018-07-28T18:23:52.673Z,13.53
2018-07-28T18:26:22.251Z,15.13
2018-07-28T18:28:51.643Z,15.30
2018-07-28T18:31:20.988Z,16.10
2018-07-28T18:33:50.314Z,15.20
2018-07-28T18:36:19.726Z,16.00
2018-07-28T18:38:49.018Z,16.40
2018-07-28T18:41:18.357Z,15.63
2018-07-28T18:43:47.708Z,17.23
2018-07-28T18:46:17.070Z,17.23
2018-07-28T18:48:46.631Z,17.40
2018-07-28T18:51:15.948Z,17.50
2018-07-28T18:53:45.284Z,17.87
2018-07-28T18:56:14.618Z,16.40
2018-07-28T18:58:44.098Z,16.00
2018-07-28T19:01:13.601Z,16.77
2018-07-28T19:03:43.069Z,17.40
2018-07-28T19:06:12.413Z,16.23
2018-07-28T19:08:41.732Z,17.07
2018-07-28T19:11:11.175Z,17.07
2018-07-28T19:13:45.728Z,17.23
2018-07-28T19:16:15.052Z,17.97
2018-07-28T19:18:49.479Z,16.87
2018-07-28T19:21:18.891Z,17.07
2018-07-28T19:23:53.549Z,16.87
2018-07-28T19:26:23.159Z,16.20
2018-07-28T19:28:57.669Z,17.63
2018-07-28T19:31:27.043Z,16.40
2018-07-28T19:33:56.382Z,15.00
2018-07-28T19:36:31.149Z,16.00
2018-07-28T19:39:00.478Z,16.47
2018-07-28T19:41:32.766Z,17.07
2018-07-28T19:44:02.571Z,18.20
2018-07-28T19:46:32.020Z,17.80
2018-07-28T19:49:01.452Z,16.93
2018-07-28T19:51:30.870Z,17.77
2018-07-28T19:54:00.211Z,18.50
2018-07-28T19:56:29.594Z,17.30
2018-07-28T19:58:58.915Z,17.70
2018-07-28T20:01:28.269Z,16.53
2018-07-28T20:03:57.716Z,15.20
2018-07-28T20:06:27.004Z,16.90
2018-07-28T20:08:56.354Z,17.27
2018-07-28T20:11:25.727Z,16.67
2018-07-28T20:13:55.501Z,18.57
2018-07-28T20:16:24.833Z,17.27
2018-07-28T20:18:54.457Z,15.77
2018-07-28T20:21:23.806Z,17.03
2018-07-28T20:23:53.116Z,16.60
2018-07-28T20:26:22.757Z,15.90
2018-07-28T20:28:52.375Z,16.53
2018-07-28T20:31:21.733Z,17.17
2018-07-28T20:33:51.528Z,17.00
2018-07-28T20:36:20.885Z,15.80
2018-07-28T20:38:50.238Z,16.37
2018-07-28T20:41:19.704Z,17.57
2018-07-28T20:43:49.010Z,18.63
2018-07-28T20:46:18.362Z,16.70
2018-07-28T20:48:48.339Z,17.23
2018-07-28T20:51:17.661Z,18.00
2018-07-28T20:53:46.966Z,17.87
2018-07-28T20:56:16.287Z,16.50
2018-07-28T20:58:45.568Z,16.63
2018-07-28T21:01:14.876Z,15.33
2018-07-28T21:03:44.236Z,15.37
2018-07-28T21:06:14.572Z,14.37
2018-07-28T21:08:43.906Z,14.27
2018-07-28T21:11:13.534Z,14.00
2018-07-28T21:13:42.900Z,13.33
2018-07-28T21:16:12.235Z,15.07
2018-07-28T21:18:41.632Z,13.10
2018-07-28T21:21:10.947Z,13.70
2018-07-28T21:23:40.334Z,14.20
2018-07-28T21:26:09.666Z,13.23
2018-07-28T21:28:39.120Z,10.97
2018-07-28T21:31:08.468Z,11.93
2018-07-28T21:33:38.273Z,13.10
2018-07-28T21:36:07.551Z,12.53
2018-07-28T21:38:36.847Z,17.20
2018-07-28T21:41:06.474Z,11.63
2018-07-28T21:43:35.772Z,11.53
2018-07-28T21:46:05.170Z,10.70
2018-07-28T21:48:34.582Z,10.37
2018-07-28T21:51:03.894Z,10.17
2018-07-28T21:53:33.210Z,9.67
2018-07-28T21:56:02.964Z,9.90
2018-07-28T21:58:32.251Z,9.50
2018-07-28T22:01:08.064Z,10.03
2018-07-28T22:03:37.840Z,9.03
2018-07-28T22:06:07.111Z,9.20
2018-07-28T22:08:36.438Z,9.60
2018-07-28T22:11:05.806Z,9.33
2018-07-28T22:13:35.109Z,9.17
2018-07-28T22:16:04.765Z,10.40
2018-07-28T22:18:34.037Z,9.63
2018-07-28T22:21:03.359Z,10.07
2018-07-28T22:23:32.708Z,10.40
2018-07-28T22:26:02.091Z,9.00
2018-07-28T22:28:31.407Z,9.70
2018-07-28T22:31:00.778Z,8.47
2018-07-28T22:33:30.047Z,8.90
2018-07-28T22:35:59.311Z,8.20
2018-07-28T22:38:29.076Z,8.57
2018-07-28T22:40:58.512Z,8.60
2018-07-28T22:43:27.858Z,8.13
2018-07-28T22:45:57.731Z,8.10
2018-07-28T22:48:27.078Z,8.30
2018-07-28T22:50:56.371Z,8.20
2018-07-28T22:53:25.717Z,8.30
2018-07-28T22:55:55.013Z,7.50
2018-07-28T22:58:24.296Z,8.13
2018-07-28T23:00:53.807Z,8.13
2018-07-28T23:03:23.155Z,8.20
2018-07-28T23:05:52.439Z,7.70
2018-07-28T23:08:21.786Z,8.23
2018-07-28T23:10:51.104Z,7.40
2018-07-28T23:13:20.444Z,8.30
2018-07-28T23:15:49.782Z,7.90
2018-07-28T23:18:19.064Z,8.43
2018-07-28T23:20:48.349Z,7.60
2018-07-28T23:23:18.131Z,7.70
2018-07-28T23:25:47.469Z,7.97
2018-07-28T23:28:16.744Z,7.67
2018-07-28T23:30:46.060Z,8.30
2018-07-28T23:33:15.347Z,8.80
2018-07-28T23:35:44.703Z,8.00
2018-07-28T23:38:14.115Z,8.13
2018-07-28T23:40:43.426Z,7.97
2018-07-28T23:43:12.704Z,8.03
2018-07-28T23:45:42.436Z,8.90
2018-07-28T23:48:11.727Z,9.10
2018-07-28T23:50:41.061Z,9.70
2018-07-28T23:53:10.423Z,8.40
2018-07-28T23:55:39.729Z,10.00
2018-07-28T23:58:09.030Z,9.20
